sensor_id;sensor_type;location;lat;lon;timestamp;pressure;altitude;pressure_sealevel;temperature;humidity
62436;BME280;48480;50.252;18.848;2023-04-22T00:02:24;98547.69;;;8.79;54.93
62436;BME280;48480;50.252;18.848;2023-04-22T00:05:09;98549.14;;;8.81;55.17
62436;BME280;48480;50.252;18.848;2023-04-22T00:07:56;98549.79;;;8.80;55.45
62436;BME280;48480;50.252;18.848;2023-04-22T00:10:40;98549.09;;;8.78;55.76
62436;BME280;48480;50.252;18.848;2023-04-22T00:13:24;98549.75;;;8.75;55.78
62436;BME280;48480;50.252;18.848;2023-04-22T00:16:09;98549.33;;;8.72;55.99
62436;BME280;48480;50.252;18.848;2023-04-22T00:18:53;98549.05;;;8.70;55.72
62436;BME280;48480;50.252;18.848;2023-04-22T00:21:37;98550.77;;;8.70;55.91
62436;BME280;48480;50.252;18.848;2023-04-22T00:24:21;98552.79;;;8.70;56.09
62436;BME280;48480;50.252;18.848;2023-04-22T00:27:05;98553.84;;;8.71;56.05
62436;BME280;48480;50.252;18.848;2023-04-22T00:29:49;98551.10;;;8.69;56.17
62436;BME280;48480;50.252;18.848;2023-04-22T00:32:35;98553.17;;;8.62;56.55
62436;BME280;48480;50.252;18.848;2023-04-22T00:35:19;98551.63;;;8.57;56.88
62436;BME280;48480;50.252;18.848;2023-04-22T00:38:03;98548.60;;;8.53;57.00
62436;BME280;48480;50.252;18.848;2023-04-22T00:40:47;98546.82;;;8.49;57.24
62436;BME280;48480;50.252;18.848;2023-04-22T00:43:31;98550.20;;;8.42;57.43
62436;BME280;48480;50.252;18.848;2023-04-22T00:46:15;98542.42;;;8.32;57.64
62436;BME280;48480;50.252;18.848;2023-04-22T00:49:00;98549.30;;;8.33;57.80
62436;BME280;48480;50.252;18.848;2023-04-22T00:51:45;98546.48;;;8.30;58.01
62436;BME280;48480;50.252;18.848;2023-04-22T00:54:29;98548.70;;;8.28;58.24
62436;BME280;48480;50.252;18.848;2023-04-22T00:57:16;98548.73;;;8.24;58.36
62436;BME280;48480;50.252;18.848;2023-04-22T01:00:01;98551.67;;;8.21;58.19
62436;BME280;48480;50.252;18.848;2023-04-22T01:02:46;98550.64;;;8.16;58.42
62436;BME280;48480;50.252;18.848;2023-04-22T01:05:30;98549.41;;;8.13;58.40
62436;BME280;48480;50.252;18.848;2023-04-22T01:08:15;98550.40;;;8.06;58.42
62436;BME280;48480;50.252;18.848;2023-04-22T01:11:01;98554.44;;;8.02;58.61
62436;BME280;48480;50.252;18.848;2023-04-22T01:13:45;98554.09;;;7.97;58.94
62436;BME280;48480;50.252;18.848;2023-04-22T01:16:30;98555.61;;;7.93;59.20
62436;BME280;48480;50.252;18.848;2023-04-22T01:19:17;98553.86;;;7.89;59.25
62436;BME280;48480;50.252;18.848;2023-04-22T01:22:02;98552.65;;;7.88;59.32
62436;BME280;48480;50.252;18.848;2023-04-22T01:24:46;98553.45;;;7.85;59.46
62436;BME280;48480;50.252;18.848;2023-04-22T01:27:30;98553.96;;;7.81;59.55
62436;BME280;48480;50.252;18.848;2023-04-22T01:30:15;98553.91;;;7.77;59.70
62436;BME280;48480;50.252;18.848;2023-04-22T01:33:00;98554.97;;;7.75;59.78
62436;BME280;48480;50.252;18.848;2023-04-22T01:35:44;98551.70;;;7.72;59.84
62436;BME280;48480;50.252;18.848;2023-04-22T01:38:28;98552.69;;;7.71;59.92
62436;BME280;48480;50.252;18.848;2023-04-22T01:41:16;98555.23;;;7.69;59.98
62436;BME280;48480;50.252;18.848;2023-04-22T01:44:02;98555.70;;;7.66;60.05
62436;BME280;48480;50.252;18.848;2023-04-22T01:46:47;98557.54;;;7.62;60.35
62436;BME280;48480;50.252;18.848;2023-04-22T01:49:31;98560.88;;;7.60;60.48
62436;BME280;48480;50.252;18.848;2023-04-22T01:52:15;98558.16;;;7.60;60.58
62436;BME280;48480;50.252;18.848;2023-04-22T01:55:00;98558.64;;;7.60;60.64
62436;BME280;48480;50.252;18.848;2023-04-22T01:57:45;98558.90;;;7.60;60.54
62436;BME280;48480;50.252;18.848;2023-04-22T02:00:29;98561.45;;;7.61;60.54
62436;BME280;48480;50.252;18.848;2023-04-22T02:03:13;98558.61;;;7.61;60.57
62436;BME280;48480;50.252;18.848;2023-04-22T02:05:57;98559.50;;;7.59;60.61
62436;BME280;48480;50.252;18.848;2023-04-22T02:08:41;98560.96;;;7.54;60.63
62436;BME280;48480;50.252;18.848;2023-04-22T02:11:25;98562.14;;;7.48;60.79
62436;BME280;48480;50.252;18.848;2023-04-22T02:14:09;98559.52;;;7.43;60.75
62436;BME280;48480;50.252;18.848;2023-04-22T02:16:53;98558.61;;;7.38;60.72
62436;BME280;48480;50.252;18.848;2023-04-22T02:19:37;98543.59;;;7.27;60.87
62436;BME280;48480;50.252;18.848;2023-04-22T02:22:22;98561.67;;;7.36;60.96
62436;BME280;48480;50.252;18.848;2023-04-22T02:25:07;98559.30;;;7.32;60.87
62436;BME280;48480;50.252;18.848;2023-04-22T02:27:51;98558.36;;;7.24;61.14
62436;BME280;48480;50.252;18.848;2023-04-22T02:30:36;98556.08;;;7.16;61.46
62436;BME280;48480;50.252;18.848;2023-04-22T02:33:20;98544.48;;;7.06;61.70
62436;BME280;48480;50.252;18.848;2023-04-22T02:36:03;98553.35;;;7.09;61.94
62436;BME280;48480;50.252;18.848;2023-04-22T02:38:48;98551.49;;;7.09;61.89
62436;BME280;48480;50.252;18.848;2023-04-22T02:41:32;98551.39;;;7.08;61.93
62436;BME280;48480;50.252;18.848;2023-04-22T02:44:16;98550.11;;;7.05;61.93
62436;BME280;48480;50.252;18.848;2023-04-22T02:47:00;98554.55;;;7.01;61.92
62436;BME280;48480;50.252;18.848;2023-04-22T02:49:44;98551.04;;;6.96;62.14
62436;BME280;48480;50.252;18.848;2023-04-22T02:52:29;98548.84;;;6.90;62.41
62436;BME280;48480;50.252;18.848;2023-04-22T02:55:12;98546.13;;;6.85;62.61
62436;BME280;48480;50.252;18.848;2023-04-22T02:57:57;98548.52;;;6.83;62.69
62436;BME280;48480;50.252;18.848;2023-04-22T03:00:41;98548.80;;;6.80;62.72
62436;BME280;48480;50.252;18.848;2023-04-22T03:03:25;98547.50;;;6.77;62.59
62436;BME280;48480;50.252;18.848;2023-04-22T03:06:09;98550.17;;;6.77;62.69
62436;BME280;48480;50.252;18.848;2023-04-22T03:08:53;98550.16;;;6.78;62.61
62436;BME280;48480;50.252;18.848;2023-04-22T03:11:37;98550.60;;;6.78;62.40
62436;BME280;48480;50.252;18.848;2023-04-22T03:14:21;98554.45;;;6.80;62.56
62436;BME280;48480;50.252;18.848;2023-04-22T03:17:05;98554.91;;;6.82;62.52
62436;BME280;48480;50.252;18.848;2023-04-22T03:19:49;98555.34;;;6.82;62.46
62436;BME280;48480;50.252;18.848;2023-04-22T03:22:33;98557.08;;;6.76;62.33
62436;BME280;48480;50.252;18.848;2023-04-22T03:25:17;98557.52;;;6.70;62.67
62436;BME280;48480;50.252;18.848;2023-04-22T03:28:02;98556.19;;;6.62;63.01
62436;BME280;48480;50.252;18.848;2023-04-22T03:30:46;98558.18;;;6.56;63.00
62436;BME280;48480;50.252;18.848;2023-04-22T03:33:31;98557.27;;;6.52;62.99
62436;BME280;48480;50.252;18.848;2023-04-22T03:36:15;98559.72;;;6.48;63.04
62436;BME280;48480;50.252;18.848;2023-04-22T03:38:59;98561.92;;;6.46;63.18
62436;BME280;48480;50.252;18.848;2023-04-22T03:41:43;98563.23;;;6.43;63.19
62436;BME280;48480;50.252;18.848;2023-04-22T03:44:27;98562.35;;;6.46;63.13
62436;BME280;48480;50.252;18.848;2023-04-22T03:47:11;98567.52;;;6.50;63.17
62436;BME280;48480;50.252;18.848;2023-04-22T03:49:54;98569.27;;;6.51;63.13
62436;BME280;48480;50.252;18.848;2023-04-22T03:52:38;98567.81;;;6.52;63.20
62436;BME280;48480;50.252;18.848;2023-04-22T03:55:22;98569.60;;;6.51;63.16
62436;BME280;48480;50.252;18.848;2023-04-22T03:58:07;98570.65;;;6.44;63.10
62436;BME280;48480;50.252;18.848;2023-04-22T04:00:51;98567.20;;;6.34;63.27
62436;BME280;48480;50.252;18.848;2023-04-22T04:03:35;98568.32;;;6.29;63.57
62436;BME280;48480;50.252;18.848;2023-04-22T04:06:19;98569.36;;;6.26;63.70
62436;BME280;48480;50.252;18.848;2023-04-22T04:09:03;98567.17;;;6.25;63.79
62436;BME280;48480;50.252;18.848;2023-04-22T04:11:47;98568.99;;;6.25;63.83
62436;BME280;48480;50.252;18.848;2023-04-22T04:14:31;98569.57;;;6.27;64.03
62436;BME280;48480;50.252;18.848;2023-04-22T04:17:15;98569.46;;;6.26;63.97
62436;BME280;48480;50.252;18.848;2023-04-22T04:19:59;98566.68;;;6.22;63.85
62436;BME280;48480;50.252;18.848;2023-04-22T04:22:43;98567.10;;;6.19;63.94
62436;BME280;48480;50.252;18.848;2023-04-22T04:25:27;98563.40;;;6.15;64.06
62436;BME280;48480;50.252;18.848;2023-04-22T04:28:13;98559.05;;;6.13;64.32
62436;BME280;48480;50.252;18.848;2023-04-22T04:30:58;98561.29;;;6.14;64.55
62436;BME280;48480;50.252;18.848;2023-04-22T04:33:42;98567.73;;;6.14;64.76
62436;BME280;48480;50.252;18.848;2023-04-22T04:36:26;98565.69;;;6.15;65.03
62436;BME280;48480;50.252;18.848;2023-04-22T04:39:11;98565.19;;;6.17;65.02
62436;BME280;48480;50.252;18.848;2023-04-22T04:41:55;98567.27;;;6.22;65.04
62436;BME280;48480;50.252;18.848;2023-04-22T04:44:41;98568.14;;;6.29;65.25
62436;BME280;48480;50.252;18.848;2023-04-22T04:47:25;98571.02;;;6.39;65.15
62436;BME280;48480;50.252;18.848;2023-04-22T04:50:09;98573.84;;;6.49;65.18
62436;BME280;48480;50.252;18.848;2023-04-22T04:52:54;98576.92;;;6.58;65.19
62436;BME280;48480;50.252;18.848;2023-04-22T04:55:38;98580.63;;;6.69;64.82
62436;BME280;48480;50.252;18.848;2023-04-22T04:58:22;98581.82;;;6.79;64.69
62436;BME280;48480;50.252;18.848;2023-04-22T05:01:06;98584.14;;;6.90;64.69
62436;BME280;48480;50.252;18.848;2023-04-22T05:03:50;98582.09;;;6.99;64.43
62436;BME280;48480;50.252;18.848;2023-04-22T05:06:34;98580.19;;;7.09;64.01
62436;BME280;48480;50.252;18.848;2023-04-22T05:09:18;98577.90;;;7.19;63.76
62436;BME280;48480;50.252;18.848;2023-04-22T05:12:03;98580.20;;;7.30;63.56
62436;BME280;48480;50.252;18.848;2023-04-22T05:14:47;98579.02;;;7.41;63.22
62436;BME280;48480;50.252;18.848;2023-04-22T05:17:31;98574.39;;;7.46;62.80
62436;BME280;48480;50.252;18.848;2023-04-22T05:20:15;98576.77;;;7.61;62.49
62436;BME280;48480;50.252;18.848;2023-04-22T05:22:58;98572.42;;;7.72;62.35
62436;BME280;48480;50.252;18.848;2023-04-22T05:25:42;98575.52;;;7.85;62.07
62436;BME280;48480;50.252;18.848;2023-04-22T05:28:27;98578.23;;;7.97;61.97
62436;BME280;48480;50.252;18.848;2023-04-22T05:31:12;98579.75;;;8.11;61.58
62436;BME280;48480;50.252;18.848;2023-04-22T05:33:56;98581.30;;;8.25;61.30
62436;BME280;48480;50.252;18.848;2023-04-22T05:36:40;98579.66;;;8.39;61.65
62436;BME280;48480;50.252;18.848;2023-04-22T05:39:24;98579.68;;;8.55;61.61
62436;BME280;48480;50.252;18.848;2023-04-22T05:42:09;98578.67;;;8.70;61.47
62436;BME280;48480;50.252;18.848;2023-04-22T05:44:53;98574.37;;;9.17;60.45
62436;BME280;48480;50.252;18.848;2023-04-22T05:47:37;98574.20;;;10.33;58.40
62436;BME280;48480;50.252;18.848;2023-04-22T05:50:21;98573.08;;;11.63;56.09
62436;BME280;48480;50.252;18.848;2023-04-22T05:53:05;98570.63;;;12.75;54.27
62436;BME280;48480;50.252;18.848;2023-04-22T05:55:50;98569.69;;;13.93;52.10
62436;BME280;48480;50.252;18.848;2023-04-22T05:58:34;98573.02;;;15.10;49.16
62436;BME280;48480;50.252;18.848;2023-04-22T06:01:18;98576.41;;;16.24;46.64
62436;BME280;48480;50.252;18.848;2023-04-22T06:04:03;98575.03;;;17.29;43.91
62436;BME280;48480;50.252;18.848;2023-04-22T06:06:49;98574.48;;;18.27;41.74
62436;BME280;48480;50.252;18.848;2023-04-22T06:09:36;98572.13;;;19.16;39.25
62436;BME280;48480;50.252;18.848;2023-04-22T06:12:20;98575.09;;;19.92;36.94
62436;BME280;48480;50.252;18.848;2023-04-22T06:15:05;98573.02;;;20.74;35.26
62436;BME280;48480;50.252;18.848;2023-04-22T06:17:49;98576.91;;;21.35;33.71
62436;BME280;48480;50.252;18.848;2023-04-22T06:20:33;98576.74;;;21.82;32.08
62436;BME280;48480;50.252;18.848;2023-04-22T06:23:18;98574.13;;;22.15;31.45
62436;BME280;48480;50.252;18.848;2023-04-22T06:26:02;98572.17;;;22.55;30.81
62436;BME280;48480;50.252;18.848;2023-04-22T06:28:46;98573.70;;;22.82;29.80
62436;BME280;48480;50.252;18.848;2023-04-22T06:31:31;98571.55;;;22.98;29.24
62436;BME280;48480;50.252;18.848;2023-04-22T06:34:15;98569.23;;;23.19;28.97
62436;BME280;48480;50.252;18.848;2023-04-22T06:37:00;98569.75;;;23.43;28.73
62436;BME280;48480;50.252;18.848;2023-04-22T06:39:44;98567.31;;;23.57;28.35
62436;BME280;48480;50.252;18.848;2023-04-22T06:42:29;98569.64;;;23.62;27.85
62436;BME280;48480;50.252;18.848;2023-04-22T06:45:13;98570.53;;;23.71;27.49
62436;BME280;48480;50.252;18.848;2023-04-22T06:47:57;98568.05;;;23.83;27.38
62436;BME280;48480;50.252;18.848;2023-04-22T06:50:41;98566.90;;;24.02;27.19
62436;BME280;48480;50.252;18.848;2023-04-22T06:53:25;98565.89;;;24.21;27.00
62436;BME280;48480;50.252;18.848;2023-04-22T06:56:09;98567.16;;;24.38;26.54
62436;BME280;48480;50.252;18.848;2023-04-22T06:58:53;98562.01;;;24.63;26.29
62436;BME280;48480;50.252;18.848;2023-04-22T07:01:37;98560.02;;;24.82;25.96
62436;BME280;48480;50.252;18.848;2023-04-22T07:04:22;98564.39;;;24.98;26.03
62436;BME280;48480;50.252;18.848;2023-04-22T07:07:06;98566.66;;;25.05;25.52
62436;BME280;48480;50.252;18.848;2023-04-22T07:09:50;98569.33;;;25.11;25.31
62436;BME280;48480;50.252;18.848;2023-04-22T07:12:35;98569.77;;;25.22;25.28
62436;BME280;48480;50.252;18.848;2023-04-22T07:15:19;98571.41;;;25.29;25.07
62436;BME280;48480;50.252;18.848;2023-04-22T07:18:03;98571.25;;;25.36;24.81
62436;BME280;48480;50.252;18.848;2023-04-22T07:20:47;98572.91;;;25.47;24.43
62436;BME280;48480;50.252;18.848;2023-04-22T07:23:31;98575.59;;;25.62;24.13
62436;BME280;48480;50.252;18.848;2023-04-22T07:26:16;98575.83;;;25.74;23.85
62436;BME280;48480;50.252;18.848;2023-04-22T07:28:59;98568.33;;;25.83;23.76
62436;BME280;48480;50.252;18.848;2023-04-22T07:31:43;98572.42;;;25.99;23.20
62436;BME280;48480;50.252;18.848;2023-04-22T07:34:28;98572.34;;;25.99;22.59
62436;BME280;48480;50.252;18.848;2023-04-22T07:37:12;98570.73;;;25.97;22.98
62436;BME280;48480;50.252;18.848;2023-04-22T07:39:56;98566.23;;;25.98;23.26
62436;BME280;48480;50.252;18.848;2023-04-22T07:42:40;98568.00;;;26.01;23.04
62436;BME280;48480;50.252;18.848;2023-04-22T07:45:24;98565.45;;;26.09;22.64
62436;BME280;48480;50.252;18.848;2023-04-22T07:48:08;98565.79;;;26.12;22.77
62436;BME280;48480;50.252;18.848;2023-04-22T07:50:52;98565.60;;;26.14;22.90
62436;BME280;48480;50.252;18.848;2023-04-22T07:53:36;98566.42;;;26.21;22.75
62436;BME280;48480;50.252;18.848;2023-04-22T07:56:20;98572.44;;;26.33;22.12
62436;BME280;48480;50.252;18.848;2023-04-22T07:59:06;98570.30;;;26.29;21.72
62436;BME280;48480;50.252;18.848;2023-04-22T08:01:51;98568.58;;;26.24;21.46
62436;BME280;48480;50.252;18.848;2023-04-22T08:04:35;98567.45;;;26.25;20.90
62436;BME280;48480;50.252;18.848;2023-04-22T08:07:20;98569.02;;;26.26;21.11
62436;BME280;48480;50.252;18.848;2023-04-22T08:10:04;98564.68;;;26.31;20.83
62436;BME280;48480;50.252;18.848;2023-04-22T08:12:49;98566.35;;;26.38;20.71
62436;BME280;48480;50.252;18.848;2023-04-22T08:15:34;98566.66;;;26.44;20.94
62436;BME280;48480;50.252;18.848;2023-04-22T08:18:18;98567.59;;;26.44;20.28
62436;BME280;48480;50.252;18.848;2023-04-22T08:21:02;98565.87;;;26.35;19.79
62436;BME280;48480;50.252;18.848;2023-04-22T08:23:46;98565.21;;;26.23;19.85
62436;BME280;48480;50.252;18.848;2023-04-22T08:26:31;98564.21;;;26.16;19.83
62436;BME280;48480;50.252;18.848;2023-04-22T08:29:15;98562.98;;;26.05;19.46
62436;BME280;48480;50.252;18.848;2023-04-22T08:32:00;98563.10;;;25.99;19.48
62436;BME280;48480;50.252;18.848;2023-04-22T08:34:45;98567.20;;;25.79;19.28
62436;BME280;48480;50.252;18.848;2023-04-22T08:37:29;98562.23;;;25.76;19.30
62436;BME280;48480;50.252;18.848;2023-04-22T08:40:14;98561.94;;;25.85;19.13
62436;BME280;48480;50.252;18.848;2023-04-22T08:42:58;98557.97;;;25.83;19.03
62436;BME280;48480;50.252;18.848;2023-04-22T08:45:44;98558.20;;;25.77;19.39
62436;BME280;48480;50.252;18.848;2023-04-22T08:48:28;98557.48;;;25.73;19.38
62436;BME280;48480;50.252;18.848;2023-04-22T08:51:14;98553.70;;;25.69;19.36
62436;BME280;48480;50.252;18.848;2023-04-22T08:53:59;98547.84;;;25.77;19.85
62436;BME280;48480;50.252;18.848;2023-04-22T08:56:44;98548.49;;;25.85;19.50
62436;BME280;48480;50.252;18.848;2023-04-22T08:59:32;98550.11;;;25.89;18.98
62436;BME280;48480;50.252;18.848;2023-04-22T09:02:20;98548.86;;;25.94;19.20
62436;BME280;48480;50.252;18.848;2023-04-22T09:05:05;98545.79;;;25.94;18.91
62436;BME280;48480;50.252;18.848;2023-04-22T09:07:50;98546.36;;;25.77;18.95
62436;BME280;48480;50.252;18.848;2023-04-22T09:10:36;98545.00;;;25.62;19.31
62436;BME280;48480;50.252;18.848;2023-04-22T09:13:22;98543.77;;;25.50;19.29
62436;BME280;48480;50.252;18.848;2023-04-22T09:16:07;98546.34;;;25.51;19.29
62436;BME280;48480;50.252;18.848;2023-04-22T09:18:51;98543.02;;;25.29;19.47
62436;BME280;48480;50.252;18.848;2023-04-22T09:21:36;98544.61;;;25.27;20.21
62436;BME280;48480;50.252;18.848;2023-04-22T09:24:21;98543.27;;;25.40;20.00
62436;BME280;48480;50.252;18.848;2023-04-22T09:27:05;98542.35;;;25.56;19.78
62436;BME280;48480;50.252;18.848;2023-04-22T09:29:50;98540.69;;;25.72;19.55
62436;BME280;48480;50.252;18.848;2023-04-22T09:32:35;98538.05;;;25.86;19.32
62436;BME280;48480;50.252;18.848;2023-04-22T09:35:37;98538.83;;;25.77;18.32
62436;BME280;48480;50.252;18.848;2023-04-22T09:38:29;98540.40;;;25.66;19.08
62436;BME280;48480;50.252;18.848;2023-04-22T09:41:13;98534.80;;;25.73;18.77
62436;BME280;48480;50.252;18.848;2023-04-22T09:43:59;98527.80;;;25.74;18.93
62436;BME280;48480;50.252;18.848;2023-04-22T09:46:48;98527.63;;;25.91;19.06
62436;BME280;48480;50.252;18.848;2023-04-22T09:49:36;98521.37;;;26.00;18.80
62436;BME280;48480;50.252;18.848;2023-04-22T09:52:23;98524.03;;;26.10;18.18
62436;BME280;48480;50.252;18.848;2023-04-22T09:55:10;98520.21;;;25.99;18.15
62436;BME280;48480;50.252;18.848;2023-04-22T09:57:56;98515.61;;;25.96;18.12
62436;BME280;48480;50.252;18.848;2023-04-22T10:00:44;98515.70;;;26.06;18.34
62436;BME280;48480;50.252;18.848;2023-04-22T10:03:30;98509.36;;;26.18;18.40
62436;BME280;48480;50.252;18.848;2023-04-22T10:06:14;98508.66;;;26.24;18.21
62436;BME280;48480;50.252;18.848;2023-04-22T10:08:59;98505.83;;;26.28;18.42
62436;BME280;48480;50.252;18.848;2023-04-22T10:11:46;98504.34;;;26.45;18.74
62436;BME280;48480;50.252;18.848;2023-04-22T10:14:34;98505.41;;;26.46;17.97
62436;BME280;48480;50.252;18.848;2023-04-22T10:17:18;98505.63;;;26.17;18.06
62436;BME280;48480;50.252;18.848;2023-04-22T10:20:15;98496.98;;;26.13;18.49
62436;BME280;48480;50.252;18.848;2023-04-22T10:23:03;98500.45;;;26.21;18.24
62436;BME280;48480;50.252;18.848;2023-04-22T10:25:54;98498.48;;;26.17;17.81
62436;BME280;48480;50.252;18.848;2023-04-22T10:28:42;98499.14;;;25.90;17.73
62436;BME280;48480;50.252;18.848;2023-04-22T10:31:29;98496.27;;;25.39;18.28
62436;BME280;48480;50.252;18.848;2023-04-22T10:34:15;98488.38;;;25.14;18.94
62436;BME280;48480;50.252;18.848;2023-04-22T10:37:05;98490.90;;;25.19;18.82
62436;BME280;48480;50.252;18.848;2023-04-22T10:42:58;98478.35;;;25.13;19.18
62436;BME280;48480;50.252;18.848;2023-04-22T10:45:49;98477.53;;;25.28;19.36
62436;BME280;48480;50.252;18.848;2023-04-22T10:48:55;98473.48;;;25.43;19.27
62436;BME280;48480;50.252;18.848;2023-04-22T10:51:44;98469.61;;;25.60;19.37
62436;BME280;48480;50.252;18.848;2023-04-22T10:57:20;98468.58;;;25.67;18.49
62436;BME280;48480;50.252;18.848;2023-04-22T11:00:41;98469.12;;;25.72;18.93
62436;BME280;48480;50.252;18.848;2023-04-22T11:03:27;98470.43;;;25.84;18.61
62436;BME280;48480;50.252;18.848;2023-04-22T11:06:40;98465.33;;;25.73;19.12
62436;BME280;48480;50.252;18.848;2023-04-22T11:09:29;98460.78;;;25.78;19.28
62436;BME280;48480;50.252;18.848;2023-04-22T11:18:39;98451.15;;;25.72;18.74
62436;BME280;48480;50.252;18.848;2023-04-22T11:21:27;98438.49;;;25.33;19.34
62436;BME280;48480;50.252;18.848;2023-04-22T11:24:19;98446.71;;;25.45;19.41
62436;BME280;48480;50.252;18.848;2023-04-22T11:27:24;98445.59;;;25.41;18.97
62436;BME280;48480;50.252;18.848;2023-04-22T11:30:20;98442.02;;;25.21;19.44
62436;BME280;48480;50.252;18.848;2023-04-22T11:33:08;98439.76;;;25.08;19.41
62436;BME280;48480;50.252;18.848;2023-04-22T11:36:16;98433.94;;;25.04;19.70
62436;BME280;48480;50.252;18.848;2023-04-22T11:39:11;98432.29;;;25.04;19.82
62436;BME280;48480;50.252;18.848;2023-04-22T11:41:58;98438.61;;;24.95;19.45
62436;BME280;48480;50.252;18.848;2023-04-22T11:44:49;98438.02;;;24.60;19.49
62436;BME280;48480;50.252;18.848;2023-04-22T11:47:51;98433.79;;;24.23;19.38
62436;BME280;48480;50.252;18.848;2023-04-22T11:50:39;98430.40;;;23.84;20.41
62436;BME280;48480;50.252;18.848;2023-04-22T11:53:24;98434.73;;;23.68;20.19
62436;BME280;48480;50.252;18.848;2023-04-22T11:56:09;98427.57;;;23.54;20.18
62436;BME280;48480;50.252;18.848;2023-04-22T11:58:53;98422.56;;;23.45;20.42
62436;BME280;48480;50.252;18.848;2023-04-22T12:01:40;98417.29;;;23.36;20.42
62436;BME280;48480;50.252;18.848;2023-04-22T12:04:24;98422.08;;;23.35;20.20
62436;BME280;48480;50.252;18.848;2023-04-22T12:07:08;98417.05;;;23.27;20.32
62436;BME280;48480;50.252;18.848;2023-04-22T12:09:53;98416.91;;;23.23;20.39
62436;BME280;48480;50.252;18.848;2023-04-22T12:12:40;98416.27;;;23.14;20.04
62436;BME280;48480;50.252;18.848;2023-04-22T12:15:24;98418.05;;;23.04;20.08
62436;BME280;48480;50.252;18.848;2023-04-22T12:18:09;98413.77;;;22.95;20.03
62436;BME280;48480;50.252;18.848;2023-04-22T12:20:58;98411.94;;;22.87;19.97
62436;BME280;48480;50.252;18.848;2023-04-22T12:23:44;98411.19;;;22.80;19.80
62436;BME280;48480;50.252;18.848;2023-04-22T12:26:30;98410.03;;;22.78;19.82
62436;BME280;48480;50.252;18.848;2023-04-22T12:29:15;98410.70;;;22.71;19.41
62436;BME280;48480;50.252;18.848;2023-04-22T12:31:59;98404.91;;;22.56;19.22
62436;BME280;48480;50.252;18.848;2023-04-22T12:34:44;98398.54;;;22.43;19.89
62436;BME280;48480;50.252;18.848;2023-04-22T12:37:28;98396.86;;;22.36;20.24
62436;BME280;48480;50.252;18.848;2023-04-22T12:40:13;98399.14;;;22.31;20.46
62436;BME280;48480;50.252;18.848;2023-04-22T12:42:57;98392.42;;;22.30;20.40
62436;BME280;48480;50.252;18.848;2023-04-22T12:45:42;98392.90;;;22.28;20.32
62436;BME280;48480;50.252;18.848;2023-04-22T12:48:26;98391.10;;;22.28;20.20
62436;BME280;48480;50.252;18.848;2023-04-22T12:51:11;98387.27;;;22.24;19.99
62436;BME280;48480;50.252;18.848;2023-04-22T12:53:55;98390.25;;;22.25;20.14
62436;BME280;48480;50.252;18.848;2023-04-22T12:56:39;98388.77;;;22.27;19.75
62436;BME280;48480;50.252;18.848;2023-04-22T12:59:24;98384.25;;;22.15;19.57
62436;BME280;48480;50.252;18.848;2023-04-22T13:02:08;98384.14;;;21.99;19.77
62436;BME280;48480;50.252;18.848;2023-04-22T13:04:51;98387.18;;;21.95;19.89
62436;BME280;48480;50.252;18.848;2023-04-22T13:07:36;98389.05;;;21.95;19.97
62436;BME280;48480;50.252;18.848;2023-04-22T13:10:21;98384.61;;;21.90;19.60
62436;BME280;48480;50.252;18.848;2023-04-22T13:13:05;98376.27;;;21.84;19.48
62436;BME280;48480;50.252;18.848;2023-04-22T13:15:51;98378.46;;;21.83;18.77
62436;BME280;48480;50.252;18.848;2023-04-22T13:18:36;98371.77;;;21.81;18.31
62436;BME280;48480;50.252;18.848;2023-04-22T13:21:20;98371.44;;;21.81;18.44
62436;BME280;48480;50.252;18.848;2023-04-22T13:24:04;98374.02;;;21.84;18.73
62436;BME280;48480;50.252;18.848;2023-04-22T13:26:49;98371.20;;;21.87;18.68
62436;BME280;48480;50.252;18.848;2023-04-22T13:29:34;98370.03;;;21.84;18.25
62436;BME280;48480;50.252;18.848;2023-04-22T13:32:18;98375.03;;;21.80;18.27
62436;BME280;48480;50.252;18.848;2023-04-22T13:35:02;98368.63;;;21.77;18.27
62436;BME280;48480;50.252;18.848;2023-04-22T13:37:46;98361.38;;;21.80;18.09
62436;BME280;48480;50.252;18.848;2023-04-22T13:40:30;98359.89;;;21.84;18.02
62436;BME280;48480;50.252;18.848;2023-04-22T13:43:14;98354.73;;;21.85;18.40
62436;BME280;48480;50.252;18.848;2023-04-22T13:45:58;98350.77;;;21.83;18.36
62436;BME280;48480;50.252;18.848;2023-04-22T13:48:43;98347.96;;;21.82;18.98
62436;BME280;48480;50.252;18.848;2023-04-22T13:51:27;98348.19;;;21.88;19.56
62436;BME280;48480;50.252;18.848;2023-04-22T13:54:12;98344.91;;;21.91;19.77
62436;BME280;48480;50.252;18.848;2023-04-22T13:56:56;98341.85;;;21.94;19.87
62436;BME280;48480;50.252;18.848;2023-04-22T13:59:40;98339.02;;;22.00;19.83
62436;BME280;48480;50.252;18.848;2023-04-22T14:02:24;98339.08;;;22.07;19.84
62436;BME280;48480;50.252;18.848;2023-04-22T14:05:09;98337.74;;;22.12;20.19
62436;BME280;48480;50.252;18.848;2023-04-22T14:07:54;98335.76;;;22.20;19.92
62436;BME280;48480;50.252;18.848;2023-04-22T14:10:38;98333.04;;;22.23;19.54
62436;BME280;48480;50.252;18.848;2023-04-22T14:13:23;98333.66;;;22.21;19.50
62436;BME280;48480;50.252;18.848;2023-04-22T14:16:08;98329.68;;;22.20;19.70
62436;BME280;48480;50.252;18.848;2023-04-22T14:18:54;98328.97;;;22.21;19.99
62436;BME280;48480;50.252;18.848;2023-04-22T14:21:39;98329.83;;;22.21;19.54
62436;BME280;48480;50.252;18.848;2023-04-22T14:24:24;98327.80;;;22.20;19.40
62436;BME280;48480;50.252;18.848;2023-04-22T14:27:10;98326.55;;;22.22;19.64
62436;BME280;48480;50.252;18.848;2023-04-22T14:29:54;98323.89;;;22.23;19.97
62436;BME280;48480;50.252;18.848;2023-04-22T14:32:38;98324.36;;;22.23;20.05
62436;BME280;48480;50.252;18.848;2023-04-22T14:35:23;98322.17;;;22.25;19.97
62436;BME280;48480;50.252;18.848;2023-04-22T14:38:09;98324.30;;;22.26;20.14
62436;BME280;48480;50.252;18.848;2023-04-22T14:40:53;98321.87;;;22.25;20.23
62436;BME280;48480;50.252;18.848;2023-04-22T14:43:39;98319.67;;;22.26;20.44